Airfield :
LOGIN :

Register | Disclaimer

   EN    FR    IT 

 










Legend :    VFR   Marginal VFR   IFR   Intensive IFR   Very Intensive IFR
Visi :
Ceiling :
>= 8 km
>= 3000ft
5 to 8 km
1000 to 3000 ft
1500m to 5 km
500 to 1000 ft
800 to 1500m
200 to 500 ft
< 800m
< 200 ft
Symbols :   Thunderstorms  Fog  Heavy snow  Heavy precipitations  Wind > 20 kt
SIGMETs :     Misc.  Thunderstorms  Icing  Turbulence  Mountain Waves  Volcanic Ashes







- Airport Elevation : 273 ft


EGXT - RAF Wittering Stamford

CURRENT METAR :
  • 240713Z 21012KT 9999 SCT012 BKN100 BKN140 14/13 Q1014 GRN

EXPIRED METARs :
  • 240650Z 21013KT 9999 FEW006 SCT015 BKN100 14/13 Q1014 WHT
  • 240550Z 21011KT 9999 FEW010 BKN100 14/13 Q1014 BLU
  • 240450Z AUTO 21009KT 9999 BKN007/// BKN015/// 14/13 Q1015

TAF TAF EGXT
Valid from the 24 at 06:00 until the 24 at 15:00 UTC


240541Z 2406/2415 21011KT 9999 BKN009
TEMPO 2406/2411 BKN006
PROB30
TEMPO 2407/2410 4000 RADZ BKN004
PROB30
TEMPO 2410/2415 5000 -RADZ
No reported NOTAMs for that airfield.



MET'MAP, your aeronautical weather chart ! - Copyright ORBIFLY December 2007 - Disclaimer

ORBIFLY MET'MAP TEAM :

Programming & Development : Alexandra Zaïnal
Concept & Development : Baudouin d'Aumeries
Co-Development & Prog : Marc-Olivier Méhu
Technical & hardware support : Manuel Goepfert

Contact : metmap@orbifly.com




SOURCES & CREDITS :

   NOAA